Observations for SOUTHEND-ON-SEA, United Kingdom (EGMC)

EGMC 280450Z 35007KT 6000 -RA FEW004 SCT007 15/13 Q0997 
EGMC 280420Z 35006KT 6000 -RADZ SCT004 BKN006 15/13 Q0997   
EGMC 280350Z 36006KT 45000 -RADZ SCT004 BKN007 15/14 Q0997  
EGMC 280250Z 36006KT 3000 -RADZ BKN005 15/14 Q0998  
EGMC 280150Z 36006KT 3500 -RADZ BKN004 15/14 Q0999  
EGMC 272250Z 36008KT 4500 -RA SCT009 BKN012 14/13 Q1001 
EGMC 272150Z 36008KT 9000 -RA FEW009 OVC022 14/13 Q1002 
EGMC 272120Z 35008KT 9000 -RA FEW009 SCT024 BKN032 15/13 Q1002  
EGMC 271950Z 36005KT 9000 -RA FEW009 SCT037 15/13 Q1003 
EGMC 271920Z 02004KT 9000 -RA FEW017 16/13 Q1003
EGMC 271850Z 02005KT 350V060 9000 -RA FEW009 BKN045 17/14 Q1003 RERA
EGMC 271820Z 02004KT 350V060 9000 -RA FEW009 BKN045 17/14 Q1003 
EGMC 271750Z 05004KT 9999 -RA FEW023 16/13 Q1003
EGMC 271720Z 05006KT 9999 -RA FEW011 17/14 Q1004
EGMC 271650Z 06007KT 9000 -RA FEW010 17/14 Q1004
EGMC 271620Z 06009KT 9000 -RA FEW010 SCT021 17/14 Q1004 
EGMC 271550Z 06008KT 9000 -RA FEW021 17/14 Q1005
EGMC 271520Z 06008KT 9000 -RA FEW009 19/16 Q1005
EGMC 271450Z 06009KT 9000 -RA FEW016 16/13 Q1005
EGMC 271420Z 06008KT 8000 FEW018 16/13 Q1005
EGMC 271350Z 07009KT 9999 FEW016 18/12 Q1006
EGMC 271320Z 09010KT 9999 FEW016 19/13 Q1006
EGMC 271250Z 09013KT 9999 FEW016 19/13 Q1006
EGMC 271220Z 09014KT 9999 FEW016 19/13 Q1006
EGMC 271150Z 10009KT 9999 FEW048 19/13 Q1006
EGMC 271120Z 11013KT CAVOK 19/12 Q1006  
EGMC 271050Z 10010KT 9999 BKN048 18/12 Q1007
EGMC 271020Z 09012KT 9999 BKN048 17/12 Q1007
EGMC 270950Z 09010KT CAVOK 19/13 Q1007  
EGMC 270920Z 10012KT CAVOK 18/11 Q1007  
EGMC 270850Z 09011KT CAVOK 17/11 Q1008  
EGMC 270820Z 09011KT 9999 BKN048 17/11 Q1008
EGMC 270750Z 08010KT 9999 BKN048 17/12 Q1008
EGMC 270720Z 09010KT CAVOK 17/12 Q1009  
EGMC 270650Z 09012KT CAVOK 17/12 Q1009  
EGMC 270620Z 09010KT 9999 FEW048 16/11 Q1009
EGMC 270550Z 09009KT 9999 FEW048 16/11 Q1009
EGMC 270520Z 09009KT 9999 FEW048 17/12 Q1010
EGMC 270450Z 09009KT 9999 FEW048 16/12 Q1010